Time;durP1;ratioP1;P1;durP2;ratioP2;P2;SDS_P1;SDS_P2;PMS_P1;PMS_P2;Temp;Humidity;BMP_temperature;BMP_pressure;BME280_temperature;BME280_humidity;BME280_pressure;Samples;Min_cycle;Max_cycle;Signal;HPM_P1;HPM_P2
2023/05/24 00:00:11;;;;;;;3.90;2.97;;;;;;;;;;5028050;28;20038;-70
2023/05/24 00:02:40;;;;;;;4.03;2.80;;;;;;;;;;5015713;28;20359;-70
2023/05/24 00:05:06;;;;;;;3.67;2.60;;;;;;;;;;5022372;28;20042;-68
2023/05/24 00:07:32;;;;;;;4.50;2.72;;;;;;;;;;5024051;28;20503;-70
2023/05/24 00:09:57;;;;;;;3.90;2.80;;;;;;;;;;5010556;28;20071;-68
2023/05/24 00:12:22;;;;;;;3.97;3.00;;;;;;;;;;5004463;28;20136;-66
2023/05/24 00:14:47;;;;;;;4.35;2.97;;;;;;;;;;5011058;28;20639;-67
2023/05/24 00:17:13;;;;;;;3.72;2.80;;;;;;;;;;5013748;28;20777;-70
2023/05/24 00:19:38;;;;;;;5.13;3.20;;;;;;;;;;5014525;28;20641;-64
2023/05/24 00:22:04;;;;;;;3.58;2.67;;;;;;;;;;5012667;28;20094;-65
2023/05/24 00:24:29;;;;;;;4.53;3.25;;;;;;;;;;5016393;28;20029;-66
2023/05/24 00:26:54;;;;;;;3.20;2.75;;;;;;;;;;5011627;28;20060;-63
2023/05/24 00:29:20;;;;;;;3.42;2.70;;;;;;;;;;5021817;28;20050;-69
2023/05/24 00:31:45;;;;;;;4.53;2.80;;;;;;;;;;5012736;28;20065;-61
2023/05/24 00:34:10;;;;;;;3.57;2.77;;;;;;;;;;5014701;28;20048;-63
2023/05/24 00:36:36;;;;;;;3.97;2.90;;;;;;;;;;5023261;28;20038;-66
2023/05/24 00:39:01;;;;;;;4.60;2.97;;;;;;;;;;5014275;28;20767;-69
2023/05/24 00:41:26;;;;;;;3.73;2.93;;;;;;;;;;5008423;28;20048;-70
2023/05/24 00:43:52;;;;;;;3.60;2.63;;;;;;;;;;5010712;28;20109;-68
2023/05/24 00:46:17;;;;;;;3.35;2.42;;;;;;;;;;5019101;28;20503;-65
2023/05/24 00:48:43;;;;;;;4.10;2.70;;;;;;;;;;5011824;28;20121;-70
2023/05/24 00:51:09;;;;;;;4.28;3.00;;;;;;;;;;5034528;28;20071;-69
2023/05/24 00:53:34;;;;;;;5.00;2.83;;;;;;;;;;5012028;28;20026;-70
2023/05/24 00:56:00;;;;;;;3.58;2.60;;;;;;;;;;5015153;28;20041;-69
2023/05/24 00:58:29;;;;;;;3.97;2.70;;;;;;;;;;5012024;28;20546;-61
2023/05/24 01:00:58;;;;;;;3.80;2.67;;;;;;;;;;5030826;28;20049;-68
2023/05/24 01:03:23;;;;;;;3.92;2.50;;;;;;;;;;5019132;28;20132;-63
2023/05/24 01:05:48;;;;;;;4.07;2.77;;;;;;;;;;5021035;28;20554;-66
2023/05/24 01:08:25;;;;;;;3.70;2.53;;;;;;;;;;5007276;28;20500;-68
2023/05/24 01:10:55;;;;;;;3.40;2.63;;;;;;;;;;5031624;28;20150;-69
2023/05/24 01:13:41;;;;;;;3.28;2.63;;;;;;;;;;5002491;28;20203;-68
2023/05/24 01:16:06;;;;;;;4.22;2.90;;;;;;;;;;5003874;28;20068;-66
2023/05/24 01:18:32;;;;;;;4.05;2.85;;;;;;;;;;5019671;28;20499;-68
2023/05/24 01:21:01;;;;;;;4.10;2.92;;;;;;;;;;5007538;28;20022;-69
2023/05/24 01:23:31;;;;;;;4.47;2.60;;;;;;;;;;5033546;28;20099;-67
2023/05/24 01:26:08;;;;;;;3.20;2.45;;;;;;;;;;5015377;28;20026;-69
2023/05/24 01:28:34;;;;;;;3.45;2.55;;;;;;;;;;5040606;28;20042;-63
2023/05/24 01:30:59;;;;;;;4.28;3.00;;;;;;;;;;5017313;28;20582;-67
2023/05/24 01:33:24;;;;;;;3.60;2.88;;;;;;;;;;5007214;28;20040;-62
2023/05/24 01:35:49;;;;;;;3.60;2.53;;;;;;;;;;5012608;28;20117;-67
2023/05/24 01:38:15;;;;;;;2.80;2.40;;;;;;;;;;5013864;28;20830;-69
2023/05/24 01:40:40;;;;;;;3.67;2.53;;;;;;;;;;5015236;28;20364;-58
2023/05/24 01:43:05;;;;;;;4.25;3.08;;;;;;;;;;5032560;28;20055;-67
2023/05/24 01:45:45;;;;;;;4.33;3.20;;;;;;;;;;5013998;28;20038;-68
2023/05/24 01:48:17;;;;;;;;;;;;;;;;;;5013049;28;20060;-69
2023/05/24 01:50:47;;;;;;;4.00;2.83;;;;;;;;;;5010399;28;19945;-67
2023/05/24 01:53:12;;;;;;;3.80;2.50;;;;;;;;;;5035075;28;20105;-60
2023/05/24 01:55:38;;;;;;;3.42;2.50;;;;;;;;;;5023292;28;20124;-69
2023/05/24 01:58:03;;;;;;;3.72;2.63;;;;;;;;;;5015823;28;20045;-63
2023/05/24 02:00:28;;;;;;;3.88;2.78;;;;;;;;;;5029186;28;20033;-66
2023/05/24 02:02:54;;;;;;;3.40;2.47;;;;;;;;;;4999004;28;20107;-68
2023/05/24 02:05:20;;;;;;;2.95;2.42;;;;;;;;;;5024631;28;20041;-67
2023/05/24 02:07:45;;;;;;;2.97;2.38;;;;;;;;;;5012572;28;20037;-62
2023/05/24 02:10:10;;;;;;;3.53;2.57;;;;;;;;;;5008236;28;20029;-66
2023/05/24 02:12:36;;;;;;;3.53;2.55;;;;;;;;;;5014245;28;20116;-69
2023/05/24 02:15:01;;;;;;;4.70;2.80;;;;;;;;;;5008792;28;20045;-65
2023/05/24 02:17:26;;;;;;;3.30;2.63;;;;;;;;;;5011863;28;20034;-65
2023/05/24 02:19:51;;;;;;;3.53;2.53;;;;;;;;;;5017941;28;20181;-68
2023/05/24 02:22:17;;;;;;;3.50;2.60;;;;;;;;;;5016771;28;20618;-68
2023/05/24 02:24:42;;;;;;;3.67;2.80;;;;;;;;;;5012516;28;20108;-63
2023/05/24 02:27:07;;;;;;;3.93;2.63;;;;;;;;;;5019564;28;20276;-65
2023/05/24 02:29:32;;;;;;;3.80;2.60;;;;;;;;;;5019771;28;20284;-69
2023/05/24 02:31:58;;;;;;;4.45;2.72;;;;;;;;;;5019173;28;20038;-62
2023/05/24 02:34:23;;;;;;;3.80;2.80;;;;;;;;;;5008627;28;20088;-69
2023/05/24 02:36:48;;;;;;;3.30;2.53;;;;;;;;;;5018219;28;20034;-68
2023/05/24 02:39:14;;;;;;;3.50;2.50;;;;;;;;;;5016521;28;20335;-65
2023/05/24 02:41:39;;;;;;;3.60;2.90;;;;;;;;;;5027977;28;20180;-68
2023/05/24 02:44:05;;;;;;;3.80;2.95;;;;;;;;;;5005751;28;20143;-65
2023/05/24 02:46:30;;;;;;;3.80;2.80;;;;;;;;;;5012700;28;20163;-64
2023/05/24 02:48:55;;;;;;;3.27;2.40;;;;;;;;;;5013140;28;20314;-63
2023/05/24 02:51:20;;;;;;;3.80;2.70;;;;;;;;;;5010909;28;20291;-67
2023/05/24 02:53:46;;;;;;;3.57;2.73;;;;;;;;;;5010566;28;20038;-66
2023/05/24 02:56:12;;;;;;;3.42;2.47;;;;;;;;;;5021869;28;20040;-66
2023/05/24 02:58:39;;;;;;;3.85;2.67;;;;;;;;;;5010707;28;20511;-59
2023/05/24 03:01:05;;;;;;;3.25;2.65;;;;;;;;;;5016455;28;20054;-69
2023/05/24 03:03:30;;;;;;;3.40;2.47;;;;;;;;;;5013728;28;20058;-60
2023/05/24 03:05:55;;;;;;;4.50;2.87;;;;;;;;;;5017424;28;20044;-66
2023/05/24 03:08:21;;;;;;;3.00;2.40;;;;;;;;;;5011244;28;20124;-68
2023/05/24 03:10:46;;;;;;;3.00;2.30;;;;;;;;;;5016251;28;20295;-69
2023/05/24 03:13:11;;;;;;;2.90;2.53;;;;;;;;;;5019694;28;20099;-64
2023/05/24 03:15:36;;;;;;;3.33;2.30;;;;;;;;;;5011763;28;20037;-69
2023/05/24 03:18:01;;;;;;;4.33;2.80;;;;;;;;;;5021704;28;20280;-64
2023/05/24 03:20:27;;;;;;;3.47;2.47;;;;;;;;;;5023280;28;20911;-69
2023/05/24 03:22:52;;;;;;;3.47;2.67;;;;;;;;;;5016006;28;20304;-62
2023/05/24 03:25:17;;;;;;;4.40;2.50;;;;;;;;;;5012573;28;20298;-64
2023/05/24 03:27:43;;;;;;;3.75;2.92;;;;;;;;;;5016930;28;20402;-64
2023/05/24 03:30:08;;;;;;;4.00;2.30;;;;;;;;;;5017315;28;20029;-69
2023/05/24 03:32:33;;;;;;;2.80;2.40;;;;;;;;;;5028028;28;20045;-67
2023/05/24 03:35:00;;;;;;;3.40;2.60;;;;;;;;;;5020054;28;20040;-69
2023/05/24 03:37:25;;;;;;;3.45;2.55;;;;;;;;;;5023419;28;20323;-62
2023/05/24 03:39:50;;;;;;;3.30;2.30;;;;;;;;;;5020776;28;20485;-66
2023/05/24 03:42:16;;;;;;;3.13;2.30;;;;;;;;;;5020595;28;20053;-69
2023/05/24 03:44:42;;;;;;;3.73;2.80;;;;;;;;;;5018597;28;20284;-69
2023/05/24 03:47:07;;;;;;;3.55;2.67;;;;;;;;;;5022373;28;20292;-66
2023/05/24 03:49:33;;;;;;;3.22;2.78;;;;;;;;;;5025117;28;20456;-72
2023/05/24 03:51:58;;;;;;;5.13;2.60;;;;;;;;;;5024472;28;20117;-76
2023/05/24 03:54:23;;;;;;;3.20;2.30;;;;;;;;;;5020970;28;20030;-72
2023/05/24 03:56:48;;;;;;;3.73;2.80;;;;;;;;;;5032607;28;20828;-71
2023/05/24 03:59:14;;;;;;;4.67;2.77;;;;;;;;;;5025966;28;20068;-72
2023/05/24 04:01:39;;;;;;;3.40;2.53;;;;;;;;;;5038158;28;20296;-73
2023/05/24 04:04:04;;;;;;;3.40;2.67;;;;;;;;;;5019508;28;20049;-65
2023/05/24 04:06:29;;;;;;;3.33;2.53;;;;;;;;;;5021923;28;20061;-66
2023/05/24 04:08:55;;;;;;;4.35;2.58;;;;;;;;;;5013684;28;20813;-66
2023/05/24 04:11:21;;;;;;;3.22;2.70;;;;;;;;;;5025562;28;20037;-60
2023/05/24 04:13:46;;;;;;;4.32;2.85;;;;;;;;;;5028749;28;20045;-63
2023/05/24 04:16:12;;;;;;;3.85;2.50;;;;;;;;;;5036332;28;20026;-68
2023/05/24 04:18:38;;;;;;;3.97;2.33;;;;;;;;;;5018905;28;20041;-69
2023/05/24 04:21:03;;;;;;;3.38;2.70;;;;;;;;;;5021283;28;20384;-74
2023/05/24 04:23:28;;;;;;;4.27;2.70;;;;;;;;;;5021786;28;20473;-68
2023/05/24 04:25:53;;;;;;;5.93;2.83;;;;;;;;;;5019966;28;20073;-67
2023/05/24 04:28:20;;;;;;;4.20;3.20;;;;;;;;;;5017429;28;20033;-73
2023/05/24 04:30:46;;;;;;;4.07;2.60;;;;;;;;;;5022913;28;20055;-69
2023/05/24 04:33:11;;;;;;;4.15;2.70;;;;;;;;;;5017674;28;20169;-73
2023/05/24 04:35:37;;;;;;;4.13;3.00;;;;;;;;;;5019050;28;20033;-67
2023/05/24 04:38:02;;;;;;;4.35;2.72;;;;;;;;;;5022429;28;20087;-68
2023/05/24 04:40:27;;;;;;;4.95;2.80;;;;;;;;;;5015577;28;20065;-57
2023/05/24 04:42:52;;;;;;;5.10;2.55;;;;;;;;;;5008378;28;20038;-61
2023/05/24 04:45:18;;;;;;;3.20;2.70;;;;;;;;;;5020463;28;20033;-65
2023/05/24 04:47:43;;;;;;;3.65;2.90;;;;;;;;;;5010318;28;20361;-69
2023/05/24 04:50:08;;;;;;;3.70;2.55;;;;;;;;;;5009822;28;20522;-63
2023/05/24 04:52:35;;;;;;;3.78;2.88;;;;;;;;;;5030343;28;20050;-65
2023/05/24 04:55:01;;;;;;;4.68;2.88;;;;;;;;;;5018694;28;20128;-59
2023/05/24 04:57:26;;;;;;;4.18;2.90;;;;;;;;;;5014543;28;20101;-62
2023/05/24 04:59:51;;;;;;;5.13;2.70;;;;;;;;;;5008670;28;20414;-61
2023/05/24 05:02:16;;;;;;;4.37;2.90;;;;;;;;;;5008728;28;20533;-59
2023/05/24 05:04:41;;;;;;;4.25;3.17;;;;;;;;;;5010612;28;20381;-67
2023/05/24 05:07:07;;;;;;;4.30;2.80;;;;;;;;;;5013867;28;20511;-65
2023/05/24 05:09:32;;;;;;;3.80;2.70;;;;;;;;;;5013744;28;20092;-64
2023/05/24 05:11:58;;;;;;;5.30;3.20;;;;;;;;;;5012670;28;20307;-62
2023/05/24 05:14:23;;;;;;;4.35;3.20;;;;;;;;;;5013303;28;20292;-61
2023/05/24 05:16:49;;;;;;;4.97;2.93;;;;;;;;;;5022821;28;20049;-67
2023/05/24 05:19:14;;;;;;;3.67;2.80;;;;;;;;;;5010741;28;20060;-67
2023/05/24 05:21:40;;;;;;;5.40;2.50;;;;;;;;;;5012286;28;20316;-62
2023/05/24 05:24:05;;;;;;;3.42;2.70;;;;;;;;;;5015729;28;20130;-62
2023/05/24 05:26:30;;;;;;;3.17;2.70;;;;;;;;;;5024990;28;20439;-59
2023/05/24 05:28:56;;;;;;;4.03;2.60;;;;;;;;;;5018405;28;20296;-63
2023/05/24 05:31:21;;;;;;;3.47;2.60;;;;;;;;;;5022340;28;20038;-69
2023/05/24 05:33:46;;;;;;;3.85;3.00;;;;;;;;;;5017895;28;20033;-65
2023/05/24 05:36:12;;;;;;;5.38;3.53;;;;;;;;;;4997030;28;20120;-69
2023/05/24 05:38:37;;;;;;;3.53;2.77;;;;;;;;;;5028063;28;20080;-62
2023/05/24 05:41:02;;;;;;;4.27;2.77;;;;;;;;;;5027014;28;20319;-73
2023/05/24 05:43:28;;;;;;;4.43;2.87;;;;;;;;;;5019887;28;20077;-63
2023/05/24 05:45:53;;;;;;;4.85;3.22;;;;;;;;;;5024556;28;20820;-70
2023/05/24 05:48:18;;;;;;;4.10;2.70;;;;;;;;;;5020475;28;20118;-62
2023/05/24 05:50:44;;;;;;;5.00;2.87;;;;;;;;;;5017569;28;20526;-68
2023/05/24 05:53:09;;;;;;;3.77;2.53;;;;;;;;;;5015871;28;20394;-69
2023/05/24 05:55:35;;;;;;;4.30;2.85;;;;;;;;;;5015642;28;20148;-71
2023/05/24 05:58:00;;;;;;;5.60;2.90;;;;;;;;;;5015356;28;20056;-68
2023/05/24 06:00:25;;;;;;;3.65;2.60;;;;;;;;;;5012959;28;20045;-59
2023/05/24 06:02:50;;;;;;;4.53;2.80;;;;;;;;;;5023112;28;20132;-66
2023/05/24 06:05:16;;;;;;;3.83;2.60;;;;;;;;;;5012848;28;20030;-61
2023/05/24 06:07:42;;;;;;;5.13;3.03;;;;;;;;;;5013199;28;20729;-67
2023/05/24 06:10:07;;;;;;;3.60;2.83;;;;;;;;;;5014297;28;20045;-65
2023/05/24 06:12:33;;;;;;;4.95;2.92;;;;;;;;;;5011004;28;20080;-61
2023/05/24 06:14:58;;;;;;;3.50;2.90;;;;;;;;;;5011904;28;20068;-64
2023/05/24 06:17:23;;;;;;;4.72;3.13;;;;;;;;;;5011576;28;20044;-61
2023/05/24 06:19:50;;;;;;;4.40;2.73;;;;;;;;;;5007305;28;20092;-61
2023/05/24 06:22:15;;;;;;;3.03;2.55;;;;;;;;;;5010914;28;20629;-60
2023/05/24 06:24:42;;;;;;;5.57;2.75;;;;;;;;;;5009718;28;20466;-64
2023/05/24 06:27:07;;;;;;;5.53;3.20;;;;;;;;;;5009930;28;20692;-59
2023/05/24 06:29:33;;;;;;;4.13;2.73;;;;;;;;;;5010448;28;20045;-64
2023/05/24 06:31:58;;;;;;;4.50;2.93;;;;;;;;;;5025406;28;20689;-63
2023/05/24 06:34:23;;;;;;;3.63;2.67;;;;;;;;;;5008238;28;20419;-69
2023/05/24 06:36:49;;;;;;;3.17;2.70;;;;;;;;;;5012570;28;20300;-64
2023/05/24 06:39:15;;;;;;;4.60;2.78;;;;;;;;;;5006446;28;20060;-62
2023/05/24 06:41:42;;;;;;;3.83;2.70;;;;;;;;;;5011453;28;20042;-60
2023/05/24 06:44:07;;;;;;;5.75;2.90;;;;;;;;;;5012890;28;20360;-66
2023/05/24 06:46:32;;;;;;;4.65;2.90;;;;;;;;;;5028478;28;20041;-63
2023/05/24 06:48:58;;;;;;;3.35;2.58;;;;;;;;;;5012205;28;20476;-69
2023/05/24 06:51:23;;;;;;;4.07;2.83;;;;;;;;;;5011808;28;20475;-69
2023/05/24 06:53:48;;;;;;;3.87;2.77;;;;;;;;;;5012975;28;20033;-67
2023/05/24 06:56:13;;;;;;;4.03;2.78;;;;;;;;;;5013902;28;20328;-64
2023/05/24 06:58:39;;;;;;;4.10;3.23;;;;;;;;;;5011245;28;20415;-66
2023/05/24 07:01:04;;;;;;;5.43;3.20;;;;;;;;;;5010232;28;20442;-62
2023/05/24 07:03:30;;;;;;;3.38;2.95;;;;;;;;;;5009945;28;20052;-63
2023/05/24 07:05:56;;;;;;;3.78;2.95;;;;;;;;;;5010437;28;21300;-57
2023/05/24 07:08:22;;;;;;;3.65;2.70;;;;;;;;;;5025875;28;20033;-63
2023/05/24 07:10:47;;;;;;;4.70;3.08;;;;;;;;;;5021847;28;20038;-66
2023/05/24 07:13:12;;;;;;;5.13;3.13;;;;;;;;;;5013688;28;20042;-66
2023/05/24 07:15:41;;;;;;;4.13;2.77;;;;;;;;;;5014320;28;20306;-64
2023/05/24 07:18:06;;;;;;;4.07;3.03;;;;;;;;;;5012740;28;20311;-65
2023/05/24 07:20:31;;;;;;;4.60;2.70;;;;;;;;;;5011093;28;20041;-64
2023/05/24 07:22:57;;;;;;;3.25;2.60;;;;;;;;;;5012292;28;20061;-68
2023/05/24 07:25:23;;;;;;;4.90;3.05;;;;;;;;;;5012322;28;20045;-64
2023/05/24 07:27:48;;;;;;;3.70;2.65;;;;;;;;;;5009790;28;20084;-67
2023/05/24 07:30:14;;;;;;;3.70;2.47;;;;;;;;;;5010266;28;20167;-66
2023/05/24 07:32:39;;;;;;;5.88;3.20;;;;;;;;;;5011719;28;20521;-69
2023/05/24 07:35:05;;;;;;;7.03;3.95;;;;;;;;;;5010648;28;20045;-62
2023/05/24 07:37:30;;;;;;;6.45;3.60;;;;;;;;;;5010022;28;20038;-64
2023/05/24 07:39:55;;;;;;;4.83;3.47;;;;;;;;;;5009530;28;20464;-58
2023/05/24 07:42:20;;;;;;;7.88;4.80;;;;;;;;;;5009136;28;20805;-63
2023/05/24 07:44:46;;;;;;;9.25;4.25;;;;;;;;;;5009384;28;20042;-65
2023/05/24 07:47:11;;;;;;;5.80;4.47;;;;;;;;;;5010769;28;20050;-66
2023/05/24 07:49:36;;;;;;;7.13;3.63;;;;;;;;;;5009865;28;20304;-72
2023/05/24 07:52:03;;;;;;;6.25;3.90;;;;;;;;;;5009694;28;20499;-63
2023/05/24 07:54:28;;;;;;;7.50;4.53;;;;;;;;;;5024573;28;20042;-67
2023/05/24 07:56:53;;;;;;;8.23;3.97;;;;;;;;;;5009041;28;20107;-69
2023/05/24 07:59:18;;;;;;;5.57;4.20;;;;;;;;;;5010361;28;20476;-66
2023/05/24 08:01:44;;;;;;;7.93;4.43;;;;;;;;;;5012007;28;20045;-66
2023/05/24 08:04:10;;;;;;;7.82;4.60;;;;;;;;;;5019885;28;20136;-68
2023/05/24 08:06:35;;;;;;;7.47;4.50;;;;;;;;;;5019823;28;20038;-60
2023/05/24 08:09:01;;;;;;;6.70;4.43;;;;;;;;;;5016196;28;20047;-59
2023/05/24 08:11:26;;;;;;;5.78;4.13;;;;;;;;;;5015132;28;20120;-68
2023/05/24 08:13:51;;;;;;;8.13;4.60;;;;;;;;;;5010614;28;20495;-68
2023/05/24 08:16:17;;;;;;;7.32;4.63;;;;;;;;;;5012878;28;20293;-62
2023/05/24 08:18:42;;;;;;;8.93;4.47;;;;;;;;;;5011005;28;20184;-68
2023/05/24 08:21:07;;;;;;;9.38;4.30;;;;;;;;;;5009170;28;20496;-61
2023/05/24 08:23:33;;;;;;;9.18;4.40;;;;;;;;;;5013261;28;20038;-67
2023/05/24 08:25:58;;;;;;;6.72;4.20;;;;;;;;;;5011155;28;20099;-66
2023/05/24 08:28:24;;;;;;;7.43;3.85;;;;;;;;;;5009739;28;20120;-67
2023/05/24 08:30:49;;;;;;;7.05;4.32;;;;;;;;;;5009917;28;20493;-64
2023/05/24 08:33:15;;;;;;;7.87;3.83;;;;;;;;;;5010101;28;20073;-63
2023/05/24 08:35:40;;;;;;;5.60;3.60;;;;;;;;;;5007666;28;20334;-57
2023/05/24 08:38:06;;;;;;;5.47;3.60;;;;;;;;;;5011020;28;20029;-64
2023/05/24 08:40:31;;;;;;;6.65;3.42;;;;;;;;;;5014765;28;20284;-64
2023/05/24 08:42:58;;;;;;;5.30;3.83;;;;;;;;;;5016423;28;20416;-62
2023/05/24 08:45:23;;;;;;;5.35;3.60;;;;;;;;;;5023827;28;21276;-68
2023/05/24 08:47:48;;;;;;;5.07;3.60;;;;;;;;;;5022429;28;20458;-66
2023/05/24 08:50:14;;;;;;;4.78;3.17;;;;;;;;;;5015839;28;20579;-65
2023/05/24 08:52:39;;;;;;;6.57;3.47;;;;;;;;;;5014485;28;20050;-66
2023/05/24 08:55:05;;;;;;;4.80;3.22;;;;;;;;;;5016316;28;20041;-69
2023/05/24 08:57:31;;;;;;;6.28;3.33;;;;;;;;;;5012864;28;20155;-67
2023/05/24 08:59:56;;;;;;;5.18;3.45;;;;;;;;;;5014084;28;20183;-62
2023/05/24 09:02:22;;;;;;;4.68;3.20;;;;;;;;;;5013459;28;20527;-66
2023/05/24 09:04:51;;;;;;;6.85;3.25;;;;;;;;;;5013668;28;20075;-68
2023/05/24 09:07:16;;;;;;;4.38;3.22;;;;;;;;;;5014506;28;20042;-64
2023/05/24 09:09:44;;;;;;;6.50;3.15;;;;;;;;;;5016664;28;20056;-62
2023/05/24 09:12:09;;;;;;;5.22;2.95;;;;;;;;;;5014748;28;20087;-67
2023/05/24 09:14:34;;;;;;;6.85;3.38;;;;;;;;;;5016883;28;20029;-65
2023/05/24 09:17:00;;;;;;;4.82;2.75;;;;;;;;;;5013835;28;20029;-61
2023/05/24 09:19:26;;;;;;;4.22;3.03;;;;;;;;;;5016307;28;20032;-65
2023/05/24 09:21:52;;;;;;;5.13;2.90;;;;;;;;;;5012187;28;20022;-61
2023/05/24 09:24:17;;;;;;;4.10;3.22;;;;;;;;;;5012853;28;20025;-61
2023/05/24 09:26:42;;;;;;;3.87;2.90;;;;;;;;;;5012105;28;20037;-67
2023/05/24 09:29:08;;;;;;;5.43;2.97;;;;;;;;;;5013033;28;20657;-59
2023/05/24 09:31:33;;;;;;;5.32;2.78;;;;;;;;;;5013258;28;20276;-57
2023/05/24 09:33:58;;;;;;;5.82;2.65;;;;;;;;;;5019870;28;20472;-66
2023/05/24 09:36:24;;;;;;;3.40;2.30;;;;;;;;;;5031706;28;20174;-66
2023/05/24 09:39:01;;;;;;;7.05;2.30;;;;;;;;;;5021298;28;20283;-66
2023/05/24 09:41:26;;;;;;;2.55;2.15;;;;;;;;;;5014962;28;20227;-65
2023/05/24 09:43:52;;;;;;;4.37;2.43;;;;;;;;;;5020877;28;20133;-63
2023/05/24 09:46:18;;;;;;;6.38;2.15;;;;;;;;;;5015540;28;20268;-62
2023/05/24 09:48:59;;;;;;;4.63;2.55;;;;;;;;;;5015891;28;20036;-65
2023/05/24 09:51:24;;;;;;;7.32;2.30;;;;;;;;;;5014991;28;20478;-60
2023/05/24 09:53:51;;;;;;;4.50;2.65;;;;;;;;;;5011425;28;20037;-65
2023/05/24 09:56:16;;;;;;;5.90;2.67;;;;;;;;;;5016597;28;20093;-59
2023/05/24 09:58:42;;;;;;;4.40;2.53;;;;;;;;;;5018014;28;20061;-59
2023/05/24 10:01:07;;;;;;;4.27;2.30;;;;;;;;;;5022427;28;20159;-57
2023/05/24 10:03:33;;;;;;;4.20;2.15;;;;;;;;;;5018762;28;20133;-59
2023/05/24 10:05:58;;;;;;;4.68;2.58;;;;;;;;;;5038714;28;20112;-60
2023/05/24 10:08:24;;;;;;;3.43;2.20;;;;;;;;;;5015245;28;20033;-59
2023/05/24 10:10:49;;;;;;;7.17;2.50;;;;;;;;;;5012397;28;20034;-59
2023/05/24 10:13:16;;;;;;;4.20;2.75;;;;;;;;;;5013669;28;20410;-57
2023/05/24 10:15:41;;;;;;;4.47;2.65;;;;;;;;;;5013312;28;20401;-60
2023/05/24 10:18:07;;;;;;;3.70;2.50;;;;;;;;;;5008612;28;20041;-56
2023/05/24 10:20:33;;;;;;;3.67;2.47;;;;;;;;;;5010126;28;20057;-58
2023/05/24 10:22:59;;;;;;;4.63;2.45;;;;;;;;;;5008503;28;20045;-58
2023/05/24 10:25:25;;;;;;;3.35;2.65;;;;;;;;;;5010400;28;20083;-59
2023/05/24 10:27:52;;;;;;;3.17;2.33;;;;;;;;;;5007010;28;20495;-58
2023/05/24 10:30:25;;;;;;;3.83;2.60;;;;;;;;;;5004873;28;20079;-59
2023/05/24 10:32:51;;;;;;;3.72;2.67;;;;;;;;;;5010698;28;20056;-60
2023/05/24 10:35:18;;;;;;;5.60;2.60;;;;;;;;;;5007980;28;20434;-60
2023/05/24 10:37:44;;;;;;;4.22;2.63;;;;;;;;;;5011857;28;20101;-59
2023/05/24 10:40:18;;;;;;;6.00;2.65;;;;;;;;;;5009447;28;20038;-59
2023/05/24 10:42:44;;;;;;;4.13;2.60;;;;;;;;;;5022069;28;20092;-59
2023/05/24 10:45:15;;;;;;;3.13;2.15;;;;;;;;;;5007708;28;20414;-57
2023/05/24 10:47:41;;;;;;;4.63;2.90;;;;;;;;;;5008606;28;20045;-58
2023/05/24 10:50:15;;;;;;;3.30;2.50;;;;;;;;;;5009814;28;20444;-60
2023/05/24 10:52:40;;;;;;;5.25;2.50;;;;;;;;;;5013317;28;20037;-60
2023/05/24 10:55:07;;;;;;;5.72;2.35;;;;;;;;;;5025081;28;20099;-58
2023/05/24 10:57:32;;;;;;;4.03;2.63;;;;;;;;;;5018163;28;20065;-61
2023/05/24 11:00:18;;;;;;;5.97;2.60;;;;;;;;;;5013733;28;20068;-63
2023/05/24 11:02:43;;;;;;;4.50;2.60;;;;;;;;;;5013720;28;20052;-61
2023/05/24 11:05:08;;;;;;;3.60;2.33;;;;;;;;;;5014435;28;20038;-61
2023/05/24 11:07:37;;;;;;;5.10;2.90;;;;;;;;;;5012429;28;20049;-58
2023/05/24 11:10:05;;;;;;;6.38;2.88;;;;;;;;;;5018658;28;20048;-59
2023/05/24 11:12:37;;;;;;;4.18;2.58;;;;;;;;;;5015918;28;20041;-60
2023/05/24 11:15:03;;;;;;;3.72;2.20;;;;;;;;;;5009885;28;20040;-58
2023/05/24 11:17:28;;;;;;;3.53;2.50;;;;;;;;;;5007073;28;21685;-61
2023/05/24 11:19:53;;;;;;;3.37;2.20;;;;;;;;;;5008496;28;20188;-59
2023/05/24 11:22:19;;;;;;;6.18;2.63;;;;;;;;;;5010897;28;20136;-60
2023/05/24 11:24:45;;;;;;;4.07;2.20;;;;;;;;;;5009683;28;20042;-61
2023/05/24 11:27:10;;;;;;;4.22;2.30;;;;;;;;;;5023359;28;20060;-57
2023/05/24 11:29:39;;;;;;;3.63;2.30;;;;;;;;;;5009981;28;20057;-57
2023/05/24 11:32:04;;;;;;;3.10;2.28;;;;;;;;;;5008401;28;20136;-59
2023/05/24 11:34:30;;;;;;;4.07;2.78;;;;;;;;;;5007926;28;20145;-59
2023/05/24 11:36:56;;;;;;;5.18;2.80;;;;;;;;;;5009417;28;20034;-61
2023/05/24 11:39:22;;;;;;;3.60;2.40;;;;;;;;;;5009411;28;20581;-64
2023/05/24 11:41:47;;;;;;;4.70;2.58;;;;;;;;;;5011046;28;20186;-62
2023/05/24 11:44:13;;;;;;;4.05;2.30;;;;;;;;;;5007326;28;20053;-59
2023/05/24 11:46:39;;;;;;;3.25;2.30;;;;;;;;;;5007527;28;20046;-59
2023/05/24 11:49:05;;;;;;;2.78;2.05;;;;;;;;;;5006339;28;20495;-61
2023/05/24 11:51:31;;;;;;;5.22;2.55;;;;;;;;;;5007852;28;20041;-59
2023/05/24 11:53:57;;;;;;;4.30;2.30;;;;;;;;;;5007253;28;20038;-59
2023/05/24 11:56:23;;;;;;;3.88;2.40;;;;;;;;;;5019809;28;20034;-60
2023/05/24 11:58:51;;;;;;;3.60;2.28;;;;;;;;;;5021999;28;20083;-60
2023/05/24 12:01:26;;;;;;;5.38;2.53;;;;;;;;;;5015118;28;20045;-59
2023/05/24 12:03:54;;;;;;;2.53;2.10;;;;;;;;;;5018329;28;20123;-63
2023/05/24 12:06:19;;;;;;;3.88;2.38;;;;;;;;;;5010228;28;20090;-56
2023/05/24 12:08:45;;;;;;;4.00;2.67;;;;;;;;;;5012884;28;20104;-61
2023/05/24 12:11:10;;;;;;;4.20;2.30;;;;;;;;;;5016200;28;20091;-61
2023/05/24 12:13:36;;;;;;;3.97;2.58;;;;;;;;;;5012517;28;20025;-60
2023/05/24 12:16:02;;;;;;;3.35;2.15;;;;;;;;;;5011863;28;20087;-58
2023/05/24 12:18:27;;;;;;;4.40;2.50;;;;;;;;;;5007157;28;20034;-58
2023/05/24 12:20:52;;;;;;;3.95;2.50;;;;;;;;;;5011189;28;20029;-60
2023/05/24 12:23:18;;;;;;;3.38;2.35;;;;;;;;;;5004928;28;20715;-62
2023/05/24 12:25:44;;;;;;;3.83;2.50;;;;;;;;;;5009377;28;20538;-58
2023/05/24 12:28:09;;;;;;;3.67;2.47;;;;;;;;;;5009816;28;20040;-58
2023/05/24 12:30:35;;;;;;;4.55;2.95;;;;;;;;;;5019688;28;20032;-61
2023/05/24 12:33:00;;;;;;;3.97;2.42;;;;;;;;;;5015502;28;21593;-60
2023/05/24 12:35:27;;;;;;;3.63;2.35;;;;;;;;;;5010433;28;20064;-61
2023/05/24 12:37:56;;;;;;;3.10;2.20;;;;;;;;;;5037713;28;20052;-61
2023/05/24 12:40:22;;;;;;;3.33;2.40;;;;;;;;;;5007522;28;20509;-61
2023/05/24 12:42:55;;;;;;;4.32;2.45;;;;;;;;;;5009841;28;20127;-62
2023/05/24 12:45:27;;;;;;;4.07;2.20;;;;;;;;;;5019693;28;20030;-63
2023/05/24 12:47:53;;;;;;;4.53;2.80;;;;;;;;;;5003235;28;20066;-59
2023/05/24 12:50:18;;;;;;;4.43;2.38;;;;;;;;;;5011129;28;20057;-61
2023/05/24 12:52:46;;;;;;;5.63;2.50;;;;;;;;;;5003238;28;20033;-63
2023/05/24 12:55:11;;;;;;;4.65;2.60;;;;;;;;;;5014475;28;20038;-61
2023/05/24 12:57:37;;;;;;;3.67;2.25;;;;;;;;;;5011567;28;20534;-61
2023/05/24 13:00:02;;;;;;;3.75;2.45;;;;;;;;;;5011481;28;20045;-60
2023/05/24 13:02:28;;;;;;;3.58;2.60;;;;;;;;;;5005530;28;20058;-59
2023/05/24 13:04:53;;;;;;;3.70;2.30;;;;;;;;;;5004835;28;20061;-60
2023/05/24 13:07:18;;;;;;;3.55;2.47;;;;;;;;;;5014972;28;20052;-61
2023/05/24 13:09:44;;;;;;;3.05;2.47;;;;;;;;;;5020239;28;20044;-63
2023/05/24 13:12:09;;;;;;;4.20;2.53;;;;;;;;;;5013468;28;20053;-61
2023/05/24 13:14:35;;;;;;;4.30;2.57;;;;;;;;;;5007840;28;20048;-62
2023/05/24 13:17:00;;;;;;;2.85;2.22;;;;;;;;;;5015497;28;21134;-62
2023/05/24 13:19:26;;;;;;;3.42;2.67;;;;;;;;;;5017947;28;20476;-60
2023/05/24 13:21:51;;;;;;;5.07;2.55;;;;;;;;;;5009501;28;20910;-59
2023/05/24 13:24:16;;;;;;;3.92;2.78;;;;;;;;;;5012052;28;20048;-61
2023/05/24 13:26:42;;;;;;;5.55;2.55;;;;;;;;;;5022473;28;20045;-61
2023/05/24 13:29:07;;;;;;;4.57;2.50;;;;;;;;;;5023672;28;20041;-60
2023/05/24 13:31:32;;;;;;;3.42;2.40;;;;;;;;;;5013614;28;20045;-60
2023/05/24 13:33:57;;;;;;;5.25;3.10;;;;;;;;;;5010228;28;20464;-61
2023/05/24 13:36:23;;;;;;;5.23;2.70;;;;;;;;;;5013533;28;20026;-61
2023/05/24 13:38:48;;;;;;;5.53;3.13;;;;;;;;;;5008302;28;20350;-61
2023/05/24 13:41:13;;;;;;;4.00;2.67;;;;;;;;;;5016439;28;20038;-61
2023/05/24 13:43:38;;;;;;;3.80;2.60;;;;;;;;;;5012338;28;20307;-61
2023/05/24 13:46:04;;;;;;;4.53;2.85;;;;;;;;;;5016937;28;20042;-59
2023/05/24 13:48:29;;;;;;;4.18;2.83;;;;;;;;;;5018056;28;20033;-60
2023/05/24 13:50:54;;;;;;;4.70;2.83;;;;;;;;;;5007035;28;20120;-61
2023/05/24 13:53:21;;;;;;;4.70;2.73;;;;;;;;;;5006500;28;20038;-61
2023/05/24 13:55:46;;;;;;;3.92;2.60;;;;;;;;;;5015902;28;20298;-61
2023/05/24 13:58:11;;;;;;;5.13;2.70;;;;;;;;;;5025861;28;20109;-61
2023/05/24 14:00:37;;;;;;;4.28;2.95;;;;;;;;;;5009094;28;20324;-60
2023/05/24 14:03:03;;;;;;;3.63;2.90;;;;;;;;;;5034543;28;20137;-58
2023/05/24 14:05:29;;;;;;;3.60;2.50;;;;;;;;;;5009050;28;20131;-59
2023/05/24 14:07:56;;;;;;;4.35;2.38;;;;;;;;;;5007956;28;20030;-61
2023/05/24 14:10:21;;;;;;;4.45;2.60;;;;;;;;;;5025731;28;20072;-61
2023/05/24 14:12:46;;;;;;;3.27;2.50;;;;;;;;;;5021382;28;20462;-60
2023/05/24 14:15:12;;;;;;;4.83;2.80;;;;;;;;;;5013244;28;20363;-61
2023/05/24 14:17:37;;;;;;;4.63;3.00;;;;;;;;;;5027636;28;20269;-60
2023/05/24 14:20:02;;;;;;;3.15;2.60;;;;;;;;;;5024614;28;20306;-61
2023/05/24 14:22:28;;;;;;;5.68;2.70;;;;;;;;;;5010659;28;20045;-60
2023/05/24 14:24:53;;;;;;;5.30;3.03;;;;;;;;;;5029612;28;20492;-60
2023/05/24 14:27:18;;;;;;;5.53;2.70;;;;;;;;;;5016225;28;20034;-60
2023/05/24 14:29:44;;;;;;;4.57;2.70;;;;;;;;;;5029148;28;20808;-60
2023/05/24 14:32:10;;;;;;;3.72;2.72;;;;;;;;;;5010289;28;20303;-59
2023/05/24 14:34:35;;;;;;;3.53;2.80;;;;;;;;;;5019602;28;20436;-60